sensor_id;sensor_type;location;lat;lon;timestamp;pressure;altitude;pressure_sealevel;temperature;humidity
27334;BME280;14817;57.104;-2.094;2023-04-19T00:00:05;102876.63;;;4.62;100.00
27334;BME280;14817;57.104;-2.094;2023-04-19T00:02:36;102878.06;;;4.47;100.00
27334;BME280;14817;57.104;-2.094;2023-04-19T00:05:03;102877.03;;;4.52;100.00
27334;BME280;14817;57.104;-2.094;2023-04-19T00:07:31;102862.34;;;4.41;100.00
27334;BME280;14817;57.104;-2.094;2023-04-19T00:09:58;102865.16;;;4.37;100.00
27334;BME280;14817;57.104;-2.094;2023-04-19T00:12:24;102862.69;;;4.32;100.00
27334;BME280;14817;57.104;-2.094;2023-04-19T00:14:51;102861.91;;;4.28;100.00
27334;BME280;14817;57.104;-2.094;2023-04-19T00:17:18;102866.91;;;4.38;100.00
27334;BME280;14817;57.104;-2.094;2023-04-19T00:19:45;102859.25;;;4.54;100.00
27334;BME280;14817;57.104;-2.094;2023-04-19T00:22:12;102857.47;;;4.54;100.00
27334;BME280;14817;57.104;-2.094;2023-04-19T00:24:39;102858.47;;;4.52;100.00
27334;BME280;14817;57.104;-2.094;2023-04-19T00:27:05;102854.69;;;4.59;100.00
27334;BME280;14817;57.104;-2.094;2023-04-19T00:29:32;102862.69;;;4.57;100.00
27334;BME280;14817;57.104;-2.094;2023-04-19T00:31:59;102855.19;;;4.68;100.00
27334;BME280;14817;57.104;-2.094;2023-04-19T00:34:26;102855.47;;;4.61;100.00
27334;BME280;14817;57.104;-2.094;2023-04-19T00:36:55;102854.19;;;4.71;100.00
27334;BME280;14817;57.104;-2.094;2023-04-19T00:39:22;102855.88;;;4.74;100.00
27334;BME280;14817;57.104;-2.094;2023-04-19T00:41:49;102859.63;;;4.68;100.00
27334;BME280;14817;57.104;-2.094;2023-04-19T00:44:17;102856.03;;;4.69;100.00
27334;BME280;14817;57.104;-2.094;2023-04-19T00:46:44;102853.22;;;4.74;100.00
27334;BME280;14817;57.104;-2.094;2023-04-19T00:49:11;102849.88;;;4.68;100.00
27334;BME280;14817;57.104;-2.094;2023-04-19T00:51:38;102853.47;;;4.67;100.00
27334;BME280;14817;57.104;-2.094;2023-04-19T00:54:04;102856.34;;;4.61;100.00
27334;BME280;14817;57.104;-2.094;2023-04-19T00:56:33;102860.84;;;4.59;100.00
27334;BME280;14817;57.104;-2.094;2023-04-19T00:59:00;102861.06;;;4.53;100.00
27334;BME280;14817;57.104;-2.094;2023-04-19T01:01:27;102861.00;;;4.55;100.00
27334;BME280;14817;57.104;-2.094;2023-04-19T01:03:54;102865.78;;;4.45;100.00
27334;BME280;14817;57.104;-2.094;2023-04-19T01:06:21;102858.97;;;4.38;100.00
27334;BME280;14817;57.104;-2.094;2023-04-19T01:08:48;102855.53;;;4.34;100.00
27334;BME280;14817;57.104;-2.094;2023-04-19T01:11:15;102860.00;;;4.34;100.00
27334;BME280;14817;57.104;-2.094;2023-04-19T01:13:43;102858.63;;;4.47;100.00
27334;BME280;14817;57.104;-2.094;2023-04-19T01:16:10;102855.41;;;4.62;100.00
27334;BME280;14817;57.104;-2.094;2023-04-19T01:18:37;102859.81;;;4.63;100.00
27334;BME280;14817;57.104;-2.094;2023-04-19T01:21:07;102853.78;;;4.58;100.00
27334;BME280;14817;57.104;-2.094;2023-04-19T01:23:35;102857.94;;;4.42;100.00
27334;BME280;14817;57.104;-2.094;2023-04-19T01:26:02;102850.88;;;4.41;100.00
27334;BME280;14817;57.104;-2.094;2023-04-19T01:28:28;102847.38;;;4.40;100.00
27334;BME280;14817;57.104;-2.094;2023-04-19T01:30:55;102846.78;;;4.32;100.00
27334;BME280;14817;57.104;-2.094;2023-04-19T01:33:24;102850.03;;;4.40;100.00
27334;BME280;14817;57.104;-2.094;2023-04-19T01:35:51;102845.94;;;4.55;100.00
27334;BME280;14817;57.104;-2.094;2023-04-19T01:38:18;102846.28;;;4.46;100.00
27334;BME280;14817;57.104;-2.094;2023-04-19T01:40:45;102853.16;;;4.26;100.00
27334;BME280;14817;57.104;-2.094;2023-04-19T01:43:13;102842.75;;;4.20;100.00
27334;BME280;14817;57.104;-2.094;2023-04-19T01:45:40;102843.81;;;4.16;100.00
27334;BME280;14817;57.104;-2.094;2023-04-19T01:48:07;102842.22;;;4.11;100.00
27334;BME280;14817;57.104;-2.094;2023-04-19T01:50:34;102848.22;;;3.91;100.00
27334;BME280;14817;57.104;-2.094;2023-04-19T01:53:03;102843.00;;;3.87;100.00
27334;BME280;14817;57.104;-2.094;2023-04-19T01:55:31;102840.34;;;3.87;100.00
27334;BME280;14817;57.104;-2.094;2023-04-19T01:57:57;102838.44;;;3.93;100.00
27334;BME280;14817;57.104;-2.094;2023-04-19T02:00:24;102837.09;;;3.79;100.00
27334;BME280;14817;57.104;-2.094;2023-04-19T02:02:51;102830.16;;;3.75;100.00
27334;BME280;14817;57.104;-2.094;2023-04-19T02:05:18;102831.75;;;3.81;100.00
27334;BME280;14817;57.104;-2.094;2023-04-19T02:07:45;102829.31;;;3.75;100.00
27334;BME280;14817;57.104;-2.094;2023-04-19T02:10:12;102829.88;;;3.84;100.00
27334;BME280;14817;57.104;-2.094;2023-04-19T02:12:40;102818.00;;;3.95;100.00
27334;BME280;14817;57.104;-2.094;2023-04-19T02:15:08;102820.63;;;3.96;100.00
27334;BME280;14817;57.104;-2.094;2023-04-19T02:17:35;102831.34;;;3.93;100.00
27334;BME280;14817;57.104;-2.094;2023-04-19T02:20:02;102823.03;;;3.77;100.00
27334;BME280;14817;57.104;-2.094;2023-04-19T02:22:30;102817.06;;;3.71;100.00
27334;BME280;14817;57.104;-2.094;2023-04-19T02:24:57;102813.44;;;3.73;100.00
27334;BME280;14817;57.104;-2.094;2023-04-19T02:27:28;102811.09;;;3.64;100.00
27334;BME280;14817;57.104;-2.094;2023-04-19T02:29:54;102822.06;;;3.80;100.00
27334;BME280;14817;57.104;-2.094;2023-04-19T02:32:23;102811.97;;;3.91;100.00
27334;BME280;14817;57.104;-2.094;2023-04-19T02:34:49;102813.97;;;3.84;100.00
27334;BME280;14817;57.104;-2.094;2023-04-19T02:37:16;102810.88;;;3.97;100.00
27334;BME280;14817;57.104;-2.094;2023-04-19T02:39:43;102814.66;;;3.89;100.00
27334;BME280;14817;57.104;-2.094;2023-04-19T02:42:11;102801.25;;;3.94;100.00
27334;BME280;14817;57.104;-2.094;2023-04-19T02:44:38;102801.03;;;4.00;100.00
27334;BME280;14817;57.104;-2.094;2023-04-19T02:47:05;102805.44;;;4.01;100.00
27334;BME280;14817;57.104;-2.094;2023-04-19T02:49:31;102806.13;;;4.06;100.00
27334;BME280;14817;57.104;-2.094;2023-04-19T02:52:02;102801.97;;;3.99;100.00
27334;BME280;14817;57.104;-2.094;2023-04-19T02:54:30;102808.72;;;4.08;100.00
27334;BME280;14817;57.104;-2.094;2023-04-19T02:56:58;102811.47;;;4.05;100.00
27334;BME280;14817;57.104;-2.094;2023-04-19T02:59:25;102800.66;;;4.11;100.00
27334;BME280;14817;57.104;-2.094;2023-04-19T03:01:53;102808.66;;;4.09;100.00
27334;BME280;14817;57.104;-2.094;2023-04-19T03:04:20;102809.47;;;4.12;100.00
27334;BME280;14817;57.104;-2.094;2023-04-19T03:06:48;102804.44;;;4.04;100.00
27334;BME280;14817;57.104;-2.094;2023-04-19T03:09:15;102808.72;;;4.08;100.00
27334;BME280;14817;57.104;-2.094;2023-04-19T03:11:42;102805.16;;;4.09;100.00
27334;BME280;14817;57.104;-2.094;2023-04-19T03:14:09;102811.59;;;4.02;100.00
27334;BME280;14817;57.104;-2.094;2023-04-19T03:16:37;102809.97;;;3.98;100.00
27334;BME280;14817;57.104;-2.094;2023-04-19T03:19:03;102812.94;;;4.14;100.00
27334;BME280;14817;57.104;-2.094;2023-04-19T03:21:36;102815.06;;;4.04;100.00
27334;BME280;14817;57.104;-2.094;2023-04-19T03:24:04;102815.91;;;4.04;100.00
27334;BME280;14817;57.104;-2.094;2023-04-19T03:26:31;102818.28;;;3.87;100.00
27334;BME280;14817;57.104;-2.094;2023-04-19T03:28:59;102817.69;;;3.79;100.00
27334;BME280;14817;57.104;-2.094;2023-04-19T03:31:56;102805.94;;;3.86;100.00
27334;BME280;14817;57.104;-2.094;2023-04-19T03:34:23;102804.06;;;3.89;100.00
27334;BME280;14817;57.104;-2.094;2023-04-19T03:36:49;102804.19;;;3.86;100.00
27334;BME280;14817;57.104;-2.094;2023-04-19T03:39:17;102798.06;;;3.84;100.00
27334;BME280;14817;57.104;-2.094;2023-04-19T03:41:47;102796.28;;;3.85;100.00
27334;BME280;14817;57.104;-2.094;2023-04-19T03:44:35;102801.16;;;3.71;100.00
27334;BME280;14817;57.104;-2.094;2023-04-19T03:47:04;102804.38;;;3.80;100.00
27334;BME280;14817;57.104;-2.094;2023-04-19T03:49:38;102796.16;;;3.88;100.00
27334;BME280;14817;57.104;-2.094;2023-04-19T03:52:05;102798.88;;;3.86;100.00
27334;BME280;14817;57.104;-2.094;2023-04-19T03:54:32;102796.31;;;3.83;100.00
27334;BME280;14817;57.104;-2.094;2023-04-19T03:57:01;102792.56;;;3.91;100.00
27334;BME280;14817;57.104;-2.094;2023-04-19T03:59:27;102793.28;;;3.94;100.00
27334;BME280;14817;57.104;-2.094;2023-04-19T04:01:56;102792.19;;;4.01;100.00
27334;BME280;14817;57.104;-2.094;2023-04-19T04:04:23;102798.16;;;4.06;100.00
27334;BME280;14817;57.104;-2.094;2023-04-19T04:06:50;102799.03;;;4.07;100.00
27334;BME280;14817;57.104;-2.094;2023-04-19T04:09:17;102788.84;;;3.95;100.00
27334;BME280;14817;57.104;-2.094;2023-04-19T04:11:44;102800.13;;;4.01;100.00
27334;BME280;14817;57.104;-2.094;2023-04-19T04:14:11;102795.22;;;3.91;100.00
27334;BME280;14817;57.104;-2.094;2023-04-19T04:16:38;102788.63;;;4.01;100.00
27334;BME280;14817;57.104;-2.094;2023-04-19T04:19:06;102787.72;;;4.02;100.00
27334;BME280;14817;57.104;-2.094;2023-04-19T04:21:36;102790.25;;;4.05;100.00
27334;BME280;14817;57.104;-2.094;2023-04-19T04:24:05;102794.06;;;3.98;100.00
27334;BME280;14817;57.104;-2.094;2023-04-19T04:26:57;102791.25;;;4.02;100.00
27334;BME280;14817;57.104;-2.094;2023-04-19T04:29:31;102792.59;;;3.89;100.00
27334;BME280;14817;57.104;-2.094;2023-04-19T04:32:01;102791.28;;;3.76;100.00
27334;BME280;14817;57.104;-2.094;2023-04-19T04:34:35;102790.13;;;3.84;100.00
27334;BME280;14817;57.104;-2.094;2023-04-19T04:37:07;102788.41;;;3.82;100.00
27334;BME280;14817;57.104;-2.094;2023-04-19T04:39:36;102790.56;;;3.71;100.00
27334;BME280;14817;57.104;-2.094;2023-04-19T04:42:06;102791.84;;;3.59;100.00
27334;BME280;14817;57.104;-2.094;2023-04-19T04:44:35;102788.78;;;3.71;100.00
27334;BME280;14817;57.104;-2.094;2023-04-19T04:47:03;102788.88;;;3.41;100.00
27334;BME280;14817;57.104;-2.094;2023-04-19T04:49:36;102782.66;;;3.69;100.00
27334;BME280;14817;57.104;-2.094;2023-04-19T04:52:03;102786.34;;;3.65;100.00
27334;BME280;14817;57.104;-2.094;2023-04-19T04:54:34;102786.84;;;3.50;100.00
27334;BME280;14817;57.104;-2.094;2023-04-19T04:57:02;102784.72;;;3.61;100.00
27334;BME280;14817;57.104;-2.094;2023-04-19T04:59:29;102778.78;;;3.54;100.00
27334;BME280;14817;57.104;-2.094;2023-04-19T05:01:56;102771.53;;;3.59;100.00
27334;BME280;14817;57.104;-2.094;2023-04-19T05:04:24;102773.25;;;3.60;100.00
27334;BME280;14817;57.104;-2.094;2023-04-19T05:06:50;102766.09;;;3.62;100.00
27334;BME280;14817;57.104;-2.094;2023-04-19T05:09:22;102760.81;;;3.62;100.00
27334;BME280;14817;57.104;-2.094;2023-04-19T05:11:49;102761.47;;;3.69;100.00
27334;BME280;14817;57.104;-2.094;2023-04-19T05:14:16;102754.78;;;3.59;100.00
27334;BME280;14817;57.104;-2.094;2023-04-19T05:16:43;102754.94;;;3.54;100.00
27334;BME280;14817;57.104;-2.094;2023-04-19T05:19:11;102761.81;;;3.58;100.00
27334;BME280;14817;57.104;-2.094;2023-04-19T05:21:43;102758.84;;;3.42;100.00
27334;BME280;14817;57.104;-2.094;2023-04-19T05:24:11;102767.81;;;3.38;100.00
27334;BME280;14817;57.104;-2.094;2023-04-19T05:26:39;102764.13;;;3.42;100.00
27334;BME280;14817;57.104;-2.094;2023-04-19T05:29:07;102761.47;;;3.69;100.00
27334;BME280;14817;57.104;-2.094;2023-04-19T05:31:46;102757.22;;;3.65;100.00
27334;BME280;14817;57.104;-2.094;2023-04-19T05:34:27;102759.94;;;3.62;100.00
27334;BME280;14817;57.104;-2.094;2023-04-19T05:36:55;102762.66;;;3.60;100.00
27334;BME280;14817;57.104;-2.094;2023-04-19T05:39:22;102771.31;;;3.65;100.00
27334;BME280;14817;57.104;-2.094;2023-04-19T05:41:50;102769.94;;;3.80;100.00
27334;BME280;14817;57.104;-2.094;2023-04-19T05:44:17;102763.47;;;4.13;100.00
27334;BME280;14817;57.104;-2.094;2023-04-19T05:46:44;102765.41;;;4.33;100.00
27334;BME280;14817;57.104;-2.094;2023-04-19T05:49:14;102766.44;;;4.28;100.00
27334;BME280;14817;57.104;-2.094;2023-04-19T05:52:00;102769.84;;;4.32;100.00
27334;BME280;14817;57.104;-2.094;2023-04-19T05:54:35;102755.09;;;4.25;100.00
27334;BME280;14817;57.104;-2.094;2023-04-19T05:57:03;102761.53;;;4.18;100.00
27334;BME280;14817;57.104;-2.094;2023-04-19T05:59:30;102757.53;;;4.31;100.00
27334;BME280;14817;57.104;-2.094;2023-04-19T06:01:58;102769.91;;;4.54;100.00
27334;BME280;14817;57.104;-2.094;2023-04-19T06:04:26;102770.16;;;4.72;100.00
27334;BME280;14817;57.104;-2.094;2023-04-19T06:06:53;102765.63;;;4.50;100.00
27334;BME280;14817;57.104;-2.094;2023-04-19T06:09:20;102771.41;;;4.85;100.00
27334;BME280;14817;57.104;-2.094;2023-04-19T06:11:47;102767.25;;;4.54;100.00
27334;BME280;14817;57.104;-2.094;2023-04-19T06:14:17;102763.00;;;5.18;100.00
27334;BME280;14817;57.104;-2.094;2023-04-19T06:16:45;102758.31;;;5.02;100.00
27334;BME280;14817;57.104;-2.094;2023-04-19T06:19:11;102757.63;;;5.41;100.00
27334;BME280;14817;57.104;-2.094;2023-04-19T06:21:39;102753.50;;;5.34;100.00
27334;BME280;14817;57.104;-2.094;2023-04-19T06:24:06;102751.59;;;5.16;100.00
27334;BME280;14817;57.104;-2.094;2023-04-19T06:26:33;102744.81;;;5.51;100.00
27334;BME280;14817;57.104;-2.094;2023-04-19T06:28:59;102741.41;;;5.47;100.00
27334;BME280;14817;57.104;-2.094;2023-04-19T06:31:26;102747.69;;;5.67;100.00
27334;BME280;14817;57.104;-2.094;2023-04-19T06:33:53;102737.56;;;5.55;100.00
27334;BME280;14817;57.104;-2.094;2023-04-19T06:36:20;102737.09;;;5.65;100.00
27334;BME280;14817;57.104;-2.094;2023-04-19T06:38:46;102739.34;;;5.76;100.00
27334;BME280;14817;57.104;-2.094;2023-04-19T06:41:15;102739.53;;;6.12;100.00
27334;BME280;14817;57.104;-2.094;2023-04-19T06:43:42;102732.03;;;6.60;100.00
27334;BME280;14817;57.104;-2.094;2023-04-19T06:46:10;102742.50;;;6.44;100.00
27334;BME280;14817;57.104;-2.094;2023-04-19T06:48:39;102738.72;;;6.69;100.00
27334;BME280;14817;57.104;-2.094;2023-04-19T06:51:06;102735.59;;;6.97;100.00
27334;BME280;14817;57.104;-2.094;2023-04-19T06:53:33;102726.72;;;7.68;100.00
27334;BME280;14817;57.104;-2.094;2023-04-19T06:56:02;102726.97;;;8.14;100.00
27334;BME280;14817;57.104;-2.094;2023-04-19T06:58:32;102725.28;;;8.62;100.00
27334;BME280;14817;57.104;-2.094;2023-04-19T07:01:02;102727.31;;;8.08;100.00
27334;BME280;14817;57.104;-2.094;2023-04-19T07:03:30;102723.47;;;8.94;100.00
27334;BME280;14817;57.104;-2.094;2023-04-19T07:05:57;102731.53;;;9.25;100.00
27334;BME280;14817;57.104;-2.094;2023-04-19T07:08:25;102733.34;;;10.13;100.00
27334;BME280;14817;57.104;-2.094;2023-04-19T07:11:04;102729.56;;;9.73;100.00
27334;BME280;14817;57.104;-2.094;2023-04-19T07:13:31;102739.00;;;9.50;100.00
27334;BME280;14817;57.104;-2.094;2023-04-19T07:15:57;102736.22;;;10.10;100.00
27334;BME280;14817;57.104;-2.094;2023-04-19T07:18:24;102734.53;;;10.52;100.00
27334;BME280;14817;57.104;-2.094;2023-04-19T07:20:51;102739.81;;;10.81;100.00
27334;BME280;14817;57.104;-2.094;2023-04-19T07:23:18;102735.25;;;11.90;100.00
27334;BME280;14817;57.104;-2.094;2023-04-19T07:25:45;102740.81;;;11.34;100.00
27334;BME280;14817;57.104;-2.094;2023-04-19T07:28:11;102743.09;;;11.53;100.00
27334;BME280;14817;57.104;-2.094;2023-04-19T07:30:38;102740.00;;;12.12;100.00
27334;BME280;14817;57.104;-2.094;2023-04-19T07:33:05;102742.88;;;12.22;100.00
27334;BME280;14817;57.104;-2.094;2023-04-19T07:35:34;102743.19;;;12.04;100.00
27334;BME280;14817;57.104;-2.094;2023-04-19T07:38:01;102745.88;;;12.30;100.00
27334;BME280;14817;57.104;-2.094;2023-04-19T07:40:28;102749.38;;;12.56;100.00
27334;BME280;14817;57.104;-2.094;2023-04-19T07:42:55;102742.97;;;12.33;100.00
27334;BME280;14817;57.104;-2.094;2023-04-19T07:45:22;102753.03;;;12.68;100.00
27334;BME280;14817;57.104;-2.094;2023-04-19T07:47:49;102748.47;;;12.81;100.00
27334;BME280;14817;57.104;-2.094;2023-04-19T07:50:16;102751.25;;;12.80;100.00
27334;BME280;14817;57.104;-2.094;2023-04-19T07:52:43;102742.97;;;12.33;100.00
27334;BME280;14817;57.104;-2.094;2023-04-19T07:55:10;102751.56;;;14.07;100.00
27334;BME280;14817;57.104;-2.094;2023-04-19T07:57:36;102752.09;;;13.17;100.00
27334;BME280;14817;57.104;-2.094;2023-04-19T08:00:04;102753.22;;;13.74;100.00
27334;BME280;14817;57.104;-2.094;2023-04-19T08:02:43;102758.34;;;13.42;100.00
27334;BME280;14817;57.104;-2.094;2023-04-19T08:05:12;102754.91;;;13.40;100.00
27334;BME280;14817;57.104;-2.094;2023-04-19T08:07:39;102756.78;;;13.26;100.00
27334;BME280;14817;57.104;-2.094;2023-04-19T08:10:06;102750.09;;;14.48;100.00
27334;BME280;14817;57.104;-2.094;2023-04-19T08:12:34;102753.59;;;15.05;100.00
27334;BME280;14817;57.104;-2.094;2023-04-19T08:15:13;102753.66;;;14.82;100.00
27334;BME280;14817;57.104;-2.094;2023-04-19T08:17:59;102779.16;;;14.78;100.00
27334;BME280;14817;57.104;-2.094;2023-04-19T08:20:26;102772.53;;;14.37;100.00
27334;BME280;14817;57.104;-2.094;2023-04-19T08:22:53;102779.72;;;14.03;100.00
27334;BME280;14817;57.104;-2.094;2023-04-19T08:25:20;102785.09;;;15.16;100.00
27334;BME280;14817;57.104;-2.094;2023-04-19T08:27:49;102772.38;;;13.94;100.00
27334;BME280;14817;57.104;-2.094;2023-04-19T08:30:15;102772.66;;;14.69;100.00
27334;BME280;14817;57.104;-2.094;2023-04-19T08:32:42;102772.06;;;15.32;100.00
27334;BME280;14817;57.104;-2.094;2023-04-19T08:35:09;102767.41;;;15.87;100.00
27334;BME280;14817;57.104;-2.094;2023-04-19T08:37:36;102763.97;;;15.85;100.00
27334;BME280;14817;57.104;-2.094;2023-04-19T08:40:03;102765.59;;;16.49;100.00
27334;BME280;14817;57.104;-2.094;2023-04-19T08:42:31;102757.59;;;16.17;100.00
27334;BME280;14817;57.104;-2.094;2023-04-19T08:45:03;102763.16;;;16.87;100.00
27334;BME280;14817;57.104;-2.094;2023-04-19T08:47:35;102761.66;;;17.43;100.00
27334;BME280;14817;57.104;-2.094;2023-04-19T08:50:19;102764.22;;;17.83;100.00
27334;BME280;14817;57.104;-2.094;2023-04-19T08:52:59;102756.09;;;17.93;100.00
27334;BME280;14817;57.104;-2.094;2023-04-19T08:55:32;102751.25;;;17.87;100.00
27334;BME280;14817;57.104;-2.094;2023-04-19T08:58:02;102759.53;;;17.37;100.00
27334;BME280;14817;57.104;-2.094;2023-04-19T09:00:38;102754.97;;;17.37;100.00
27334;BME280;14817;57.104;-2.094;2023-04-19T09:03:06;102746.50;;;17.99;100.00
27334;BME280;14817;57.104;-2.094;2023-04-19T09:05:34;102753.38;;;17.64;100.00
27334;BME280;14817;57.104;-2.094;2023-04-19T09:10:54;102757.25;;;17.42;100.00
27334;BME280;14817;57.104;-2.094;2023-04-19T09:13:22;102756.97;;;17.54;100.00
27334;BME280;14817;57.104;-2.094;2023-04-19T09:15:50;102765.09;;;17.45;100.00
27334;BME280;14817;57.104;-2.094;2023-04-19T09:18:17;102759.94;;;17.51;100.00
27334;BME280;14817;57.104;-2.094;2023-04-19T09:20:45;102760.94;;;17.11;100.00
27334;BME280;14817;57.104;-2.094;2023-04-19T09:23:14;102757.81;;;17.35;100.00
27334;BME280;14817;57.104;-2.094;2023-04-19T09:25:58;102761.66;;;17.23;100.00
27334;BME280;14817;57.104;-2.094;2023-04-19T09:28:58;102750.69;;;17.25;100.00
27334;BME280;14817;57.104;-2.094;2023-04-19T09:31:26;102766.09;;;17.24;100.00
27334;BME280;14817;57.104;-2.094;2023-04-19T09:34:15;102757.66;;;17.95;100.00
27334;BME280;14817;57.104;-2.094;2023-04-19T09:36:43;102759.81;;;17.14;100.00
27334;BME280;14817;57.104;-2.094;2023-04-19T09:39:10;102759.31;;;16.89;100.00
27334;BME280;14817;57.104;-2.094;2023-04-19T09:41:53;102748.97;;;16.54;100.00
27334;BME280;14817;57.104;-2.094;2023-04-19T09:44:20;102767.06;;;17.04;100.00
27334;BME280;14817;57.104;-2.094;2023-04-19T09:47:23;102754.50;;;16.52;100.00
27334;BME280;14817;57.104;-2.094;2023-04-19T09:50:10;102760.50;;;16.97;100.00
27334;BME280;14817;57.104;-2.094;2023-04-19T09:52:51;102756.13;;;15.50;100.00
27334;BME280;14817;57.104;-2.094;2023-04-19T09:55:18;102762.41;;;16.35;100.00
27334;BME280;14817;57.104;-2.094;2023-04-19T09:57:54;102757.31;;;16.41;100.00
27334;BME280;14817;57.104;-2.094;2023-04-19T10:00:21;102762.44;;;16.44;100.00
27334;BME280;14817;57.104;-2.094;2023-04-19T10:02:51;102759.53;;;16.36;100.00
27334;BME280;14817;57.104;-2.094;2023-04-19T10:05:24;102753.22;;;17.07;100.00
27334;BME280;14817;57.104;-2.094;2023-04-19T10:07:52;102754.88;;;15.86;100.00
27334;BME280;14817;57.104;-2.094;2023-04-19T10:10:26;102753.13;;;16.68;100.00
27334;BME280;14817;57.104;-2.094;2023-04-19T10:12:58;102760.81;;;16.63;100.00
27334;BME280;14817;57.104;-2.094;2023-04-19T10:15:45;102759.53;;;16.67;100.00
27334;BME280;14817;57.104;-2.094;2023-04-19T10:18:21;102755.47;;;16.11;100.00
27334;BME280;14817;57.104;-2.094;2023-04-19T10:20:58;102751.03;;;15.89;100.00
27334;BME280;14817;57.104;-2.094;2023-04-19T10:23:27;102749.72;;;15.51;100.00
27334;BME280;14817;57.104;-2.094;2023-04-19T10:25:57;102742.50;;;16.15;100.00
27334;BME280;14817;57.104;-2.094;2023-04-19T10:28:27;102744.50;;;15.91;100.00
27334;BME280;14817;57.104;-2.094;2023-04-19T10:31:00;102740.19;;;16.41;100.00
27334;BME280;14817;57.104;-2.094;2023-04-19T10:33:29;102742.03;;;16.30;100.00
27334;BME280;14817;57.104;-2.094;2023-04-19T10:35:58;102748.69;;;15.75;100.00
27334;BME280;14817;57.104;-2.094;2023-04-19T10:38:54;102732.19;;;16.29;100.00
27334;BME280;14817;57.104;-2.094;2023-04-19T10:41:21;102730.69;;;15.31;100.00
27334;BME280;14817;57.104;-2.094;2023-04-19T10:48:58;102732.97;;;15.89;100.00
27334;BME280;14817;57.104;-2.094;2023-04-19T10:51:27;102738.81;;;16.87;100.00
27334;BME280;14817;57.104;-2.094;2023-04-19T10:53:58;102731.69;;;15.84;100.00
27334;BME280;14817;57.104;-2.094;2023-04-19T11:04:09;102714.50;;;14.99;100.00
27334;BME280;14817;57.104;-2.094;2023-04-19T11:06:54;102727.31;;;14.75;100.00
27334;BME280;14817;57.104;-2.094;2023-04-19T11:12:05;102719.06;;;14.76;100.00
27334;BME280;14817;57.104;-2.094;2023-04-19T11:14:46;102710.56;;;15.03;100.00
27334;BME280;14817;57.104;-2.094;2023-04-19T11:17:20;102725.41;;;14.98;100.00
27334;BME280;14817;57.104;-2.094;2023-04-19T11:20:01;102721.31;;;14.71;100.00
27334;BME280;14817;57.104;-2.094;2023-04-19T11:22:36;102732.81;;;15.49;100.00
27334;BME280;14817;57.104;-2.094;2023-04-19T11:25:06;102720.44;;;15.14;100.00
27334;BME280;14817;57.104;-2.094;2023-04-19T11:27:33;102723.75;;;14.18;100.00
27334;BME280;14817;57.104;-2.094;2023-04-19T11:30:05;102719.09;;;14.31;100.00
27334;BME280;14817;57.104;-2.094;2023-04-19T11:32:33;102727.06;;;14.10;100.00
27334;BME280;14817;57.104;-2.094;2023-04-19T11:35:07;102730.97;;;14.40;100.00
27334;BME280;14817;57.104;-2.094;2023-04-19T11:37:37;102727.31;;;14.41;100.00
27334;BME280;14817;57.104;-2.094;2023-04-19T11:40:05;102735.53;;;14.28;100.00
27334;BME280;14817;57.104;-2.094;2023-04-19T11:42:33;102729.88;;;14.08;100.00
27334;BME280;14817;57.104;-2.094;2023-04-19T11:45:00;102719.84;;;14.22;100.00
27334;BME280;14817;57.104;-2.094;2023-04-19T11:47:27;102716.66;;;14.05;100.00
27334;BME280;14817;57.104;-2.094;2023-04-19T11:49:54;102718.25;;;14.19;100.00
27334;BME280;14817;57.104;-2.094;2023-04-19T11:52:24;102719.34;;;14.05;100.00
27334;BME280;14817;57.104;-2.094;2023-04-19T11:54:52;102721.06;;;14.18;100.00
27334;BME280;14817;57.104;-2.094;2023-04-19T11:57:29;102721.38;;;13.33;100.00
27334;BME280;14817;57.104;-2.094;2023-04-19T12:00:07;102718.59;;;13.45;100.00
27334;BME280;14817;57.104;-2.094;2023-04-19T12:02:38;102725.56;;;13.48;100.00
27334;BME280;14817;57.104;-2.094;2023-04-19T12:05:10;102725.19;;;13.41;100.00
27334;BME280;14817;57.104;-2.094;2023-04-19T12:08:00;102718.38;;;13.24;100.00
27334;BME280;14817;57.104;-2.094;2023-04-19T12:10:32;102722.03;;;12.99;100.00
27334;BME280;14817;57.104;-2.094;2023-04-19T12:12:59;102712.06;;;12.88;100.00
27334;BME280;14817;57.104;-2.094;2023-04-19T12:15:45;102712.84;;;13.15;100.00
27334;BME280;14817;57.104;-2.094;2023-04-19T12:18:12;102716.66;;;12.99;100.00
27334;BME280;14817;57.104;-2.094;2023-04-19T12:20:43;102719.53;;;13.09;100.00
27334;BME280;14817;57.104;-2.094;2023-04-19T12:23:12;102719.91;;;12.68;100.00
27334;BME280;14817;57.104;-2.094;2023-04-19T12:25:43;102716.59;;;12.88;100.00
27334;BME280;14817;57.104;-2.094;2023-04-19T12:28:10;102713.00;;;12.76;100.00
27334;BME280;14817;57.104;-2.094;2023-04-19T12:30:37;102704.97;;;12.87;100.00
27334;BME280;14817;57.104;-2.094;2023-04-19T12:33:05;102710.13;;;12.91;100.00
27334;BME280;14817;57.104;-2.094;2023-04-19T12:35:32;102707.06;;;12.71;100.00
27334;BME280;14817;57.104;-2.094;2023-04-19T12:37:59;102715.84;;;12.49;100.00
27334;BME280;14817;57.104;-2.094;2023-04-19T12:40:28;102703.72;;;12.43;100.00
27334;BME280;14817;57.104;-2.094;2023-04-19T12:42:56;102702.53;;;12.48;100.00
27334;BME280;14817;57.104;-2.094;2023-04-19T12:45:22;102708.97;;;12.45;100.00
27334;BME280;14817;57.104;-2.094;2023-04-19T12:47:49;102696.53;;;12.44;100.00
27334;BME280;14817;57.104;-2.094;2023-04-19T12:50:16;102704.38;;;12.34;100.00
27334;BME280;14817;57.104;-2.094;2023-04-19T12:52:43;102686.72;;;12.80;100.00
27334;BME280;14817;57.104;-2.094;2023-04-19T12:55:10;102703.72;;;12.43;100.00
27334;BME280;14817;57.104;-2.094;2023-04-19T12:57:37;102696.41;;;12.45;100.00
27334;BME280;14817;57.104;-2.094;2023-04-19T13:00:04;102689.91;;;12.61;100.00
27334;BME280;14817;57.104;-2.094;2023-04-19T13:02:33;102692.31;;;12.53;100.00
27334;BME280;14817;57.104;-2.094;2023-04-19T13:05:01;102690.28;;;12.43;100.00